Time;durP1;ratioP1;P1;durP2;ratioP2;P2;SDS_P1;SDS_P2;PMS_P1;PMS_P2;Temp;Humidity;BMP_temperature;BMP_pressure;BME280_temperature;BME280_humidity;BME280_pressure;Samples;Min_cycle;Max_cycle;Signal;HPM_P1;HPM_P2
2023/10/09 00:01:51;;;;;;;21.27;14.38;;;;;;;16.15;75.98;101970.69;5096519;28;20111;-72
2023/10/09 00:04:17;;;;;;;20.08;14.50;;;;;;;16.16;76.26;101967.66;5098948;28;20023;-72
2023/10/09 00:06:43;;;;;;;22.70;15.18;;;;;;;16.13;76.85;101953.31;5102996;28;20032;-72
2023/10/09 00:11:44;;;;;;;20.55;14.98;;;;;;;16.15;77.49;101951.09;5107459;28;20044;-72
2023/10/09 00:14:11;;;;;;;21.10;15.32;;;;;;;16.16;77.37;101948.03;5094332;28;20022;-72
2023/10/09 00:17:22;;;;;;;23.23;14.30;;;;;;;16.21;77.38;101950.03;5093027;28;20067;-72
2023/10/09 00:19:31;;;;;;;23.92;14.85;;;;;;;16.23;77.78;101938.56;5079662;28;20032;-72
2023/10/09 00:21:58;;;;;;;22.10;15.10;;;;;;;16.20;78.15;101942.75;5105607;28;20035;-72
2023/10/09 00:24:24;;;;;;;22.10;15.27;;;;;;;16.25;78.00;101948.41;5104001;28;20125;-73
2023/10/09 00:27:11;;;;;;;24.40;14.88;;;;;;;16.26;78.14;101950.09;5096221;28;20028;-72
2023/10/09 00:29:42;;;;;;;20.80;15.15;;;;;;;16.31;78.14;101949.28;5098094;28;20024;-72
2023/10/09 00:32:13;;;;;;;20.05;14.50;;;;;;;16.29;78.30;101927.16;5098250;28;20165;-73
2023/10/09 00:34:42;;;;;;;22.77;15.48;;;;;;;16.30;78.37;101920.44;5108690;28;20435;-72
2023/10/09 00:37:19;;;;;;;19.67;14.68;;;;;;;16.30;78.35;101920.44;5109518;28;20040;-73
2023/10/09 00:39:48;;;;;;;21.67;14.75;;;;;;;16.30;78.31;101906.41;5102961;28;20379;-72
2023/10/09 00:42:25;;;;;;;23.92;15.15;;;;;;;16.34;78.32;101920.75;5094367;28;20024;-72
2023/10/09 00:44:51;;;;;;;23.58;15.45;;;;;;;16.31;78.26;101921.28;5097742;28;20062;-73
2023/10/09 00:47:20;;;;;;;23.88;15.07;;;;;;;16.34;78.55;101912.34;5099516;28;20060;-72
2023/10/09 00:50:01;;;;;;;21.05;15.00;;;;;;;16.33;78.65;101903.09;5093891;28;20016;-72
2023/10/09 00:52:33;;;;;;;22.98;14.52;;;;;;;16.32;78.85;101918.22;5108225;28;20027;-72
2023/10/09 00:55:08;;;;;;;22.08;14.75;;;;;;;16.37;78.63;101921.06;5114301;28;20127;-72
2023/10/09 00:57:40;;;;;;;20.83;14.77;;;;;;;16.38;78.70;101924.72;5097748;28;20027;-72
2023/10/09 01:00:13;;;;;;;21.55;14.85;;;;;;;16.36;78.67;101932.56;5102545;28;20028;-72
2023/10/09 01:02:42;;;;;;;20.65;14.73;;;;;;;16.38;78.50;101928.34;5108749;28;20501;-72
2023/10/09 01:05:19;;;;;;;20.55;14.52;;;;;;;16.37;78.72;101921.06;5096606;28;20477;-72
2023/10/09 01:07:45;;;;;;;22.40;14.02;;;;;;;16.37;78.78;101918.25;5105420;28;20090;-72
2023/10/09 01:10:35;;;;;;;22.42;15.43;;;;;;;16.37;78.82;101917.41;5093654;28;20035;-72
2023/10/09 01:12:56;;;;;;;22.38;15.40;;;;;;;16.38;78.74;101922.75;5096814;28;20036;-72
2023/10/09 01:15:43;;;;;;;21.20;15.02;;;;;;;16.38;78.74;101925.53;5111209;28;20028;-72
2023/10/09 01:18:09;;;;;;;21.95;14.82;;;;;;;16.38;78.66;101913.50;5096339;28;20046;-72
2023/10/09 01:20:41;;;;;;;22.38;15.02;;;;;;;16.40;78.43;101919.69;5103691;28;20028;-72
2023/10/09 01:23:10;;;;;;;20.25;14.45;;;;;;;16.39;78.78;101916.06;5093074;28;20024;-72
2023/10/09 01:25:46;;;;;;;20.15;14.60;;;;;;;16.37;78.71;101909.84;5092766;28;20036;-72
2023/10/09 01:28:15;;;;;;;21.30;14.95;;;;;;;16.38;78.80;101922.75;5097440;28;20020;-72
2023/10/09 01:30:41;;;;;;;22.77;15.10;;;;;;;16.38;78.70;101933.13;5109343;28;20024;-72
2023/10/09 01:33:22;;;;;;;18.52;13.73;;;;;;;16.38;78.74;101919.09;5092442;28;20028;-72
2023/10/09 01:35:48;;;;;;;23.42;14.88;;;;;;;16.39;78.51;101923.63;5094889;28;20051;-72
2023/10/09 01:38:18;;;;;;;20.73;14.23;;;;;;;16.38;78.52;101933.94;5100497;28;20035;-72
2023/10/09 01:40:51;;;;;;;19.85;13.90;;;;;;;16.36;78.57;101933.38;5092431;28;20430;-72
2023/10/09 01:43:19;;;;;;;21.05;14.32;;;;;;;16.34;78.52;101930.00;5092442;28;20112;-72
2023/10/09 01:45:46;;;;;;;19.95;14.40;;;;;;;16.32;78.55;101923.81;5092644;28;20035;-72
2023/10/09 01:48:12;;;;;;;19.83;15.05;;;;;;;16.32;78.70;101918.22;5091486;28;20028;-72
2023/10/09 01:50:41;;;;;;;19.95;13.73;;;;;;;16.33;78.35;101919.91;5092516;28;20024;-72
2023/10/09 01:53:19;;;;;;;19.83;14.23;;;;;;;16.35;78.61;101917.69;5092920;28;20020;-72
2023/10/09 01:55:46;;;;;;;19.85;14.00;;;;;;;16.32;78.39;101912.63;5093291;28;20485;-72
2023/10/09 02:00:53;;;;;;;20.08;14.63;;;;;;;16.30;78.49;101919.59;5112044;28;20042;-72
2023/10/09 02:03:23;;;;;;;18.85;13.13;;;;;;;16.35;78.24;101909.28;5110950;28;20028;-72
2023/10/09 02:05:50;;;;;;;21.83;14.90;;;;;;;16.34;78.30;101913.19;5112542;28;20032;-72
2023/10/09 02:08:16;;;;;;;19.05;13.60;;;;;;;16.31;78.14;101910.94;5104347;28;20103;-72
2023/10/09 02:10:48;;;;;;;20.60;14.45;;;;;;;16.32;78.23;101917.38;5096211;28;20028;-72
2023/10/09 02:13:17;;;;;;;21.73;14.32;;;;;;;16.35;78.08;101914.91;5100523;28;20031;-72
2023/10/09 02:26:07;;;;;;;20.83;15.27;;;;;;;16.31;78.23;101905.34;5095855;28;20042;-72
2023/10/09 02:28:32;;;;;;;18.75;12.70;;;;;;;16.33;78.04;101905.91;5094736;28;20116;-72
2023/10/09 02:31:00;;;;;;;20.65;14.35;;;;;;;16.31;78.16;101908.13;5099424;28;20485;-72
2023/10/09 02:33:30;;;;;;;17.42;13.27;;;;;;;16.33;78.11;101905.06;5108997;28;20033;-72
2023/10/09 02:35:59;;;;;;;18.83;13.75;;;;;;;16.30;78.01;101891.56;5093957;28;20394;-72
2023/10/09 02:38:26;;;;;;;19.77;14.50;;;;;;;16.28;78.09;101883.44;5103501;28;20032;-72
2023/10/09 02:43:50;;;;;;;19.92;14.85;;;;;;;16.26;78.04;101880.06;5091614;28;20475;-72
2023/10/09 02:48:52;;;;;;;19.60;13.63;;;;;;;16.27;78.09;101869.69;5091581;28;20039;-72
2023/10/09 02:53:57;;;;;;;20.63;14.38;;;;;;;16.27;77.80;101870.56;5091400;28;20092;-72
2023/10/09 02:56:42;;;;;;;19.40;13.98;;;;;;;16.26;78.11;101871.66;5093514;28;20027;-72
2023/10/09 02:59:07;;;;;;;19.35;14.25;;;;;;;16.27;77.83;101878.09;5093899;28;20034;-72
2023/10/09 03:01:38;;;;;;;18.73;14.23;;;;;;;16.26;77.92;101882.84;5102539;28;20107;-72
2023/10/09 03:04:05;;;;;;;22.60;14.47;;;;;;;16.28;77.92;101888.22;5093742;28;20446;-72
2023/10/09 03:06:32;;;;;;;19.65;14.05;;;;;;;16.29;77.96;101882.31;5090223;28;20387;-72
2023/10/09 03:08:58;;;;;;;18.58;13.75;;;;;;;16.26;78.00;101887.63;5097846;28;20032;-72
2023/10/09 03:11:32;;;;;;;21.23;14.25;;;;;;;16.26;77.93;101882.00;5110715;28;20367;-72
2023/10/09 03:13:57;;;;;;;23.33;14.30;;;;;;;16.22;78.01;101886.47;5102260;28;20107;-72
2023/10/09 03:16:27;;;;;;;23.10;15.15;;;;;;;16.25;77.89;101880.34;5095256;28;20115;-72
2023/10/09 03:18:52;;;;;;;21.92;14.60;;;;;;;16.22;78.21;101870.50;5091240;28;20028;-72
2023/10/09 03:21:19;;;;;;;18.42;13.63;;;;;;;16.22;78.10;101864.06;5093718;28;20432;-72
2023/10/09 03:23:49;;;;;;;17.85;13.23;;;;;;;16.23;77.88;101861.00;5111494;28;20060;-72
2023/10/09 03:26:19;;;;;;;20.52;13.88;;;;;;;16.21;77.63;101857.59;5109196;28;20491;-72
2023/10/09 03:28:48;;;;;;;19.60;14.20;;;;;;;16.24;77.69;101856.25;5095309;28;20036;-71
2023/10/09 03:31:13;;;;;;;23.33;14.85;;;;;;;16.21;77.63;101849.19;5097380;28;20591;-72
2023/10/09 03:33:39;;;;;;;20.42;14.55;;;;;;;16.20;77.69;101851.16;5096352;28;20118;-72
2023/10/09 03:36:09;;;;;;;19.98;13.90;;;;;;;16.21;77.54;101857.59;5102728;28;20076;-72
2023/10/09 03:38:40;;;;;;;22.60;14.50;;;;;;;16.24;77.52;101854.28;5096979;28;20028;-72
2023/10/09 03:41:06;;;;;;;19.03;13.53;;;;;;;16.24;77.38;101845.88;5094321;28;20028;-72
2023/10/09 03:43:46;;;;;;;21.33;14.95;;;;;;;16.20;77.83;101839.97;5094733;28;20020;-72
2023/10/09 03:46:22;;;;;;;18.83;14.27;;;;;;;16.20;77.54;101830.72;5096840;28;20502;-72
2023/10/09 03:48:48;;;;;;;21.55;15.35;;;;;;;16.22;77.29;101834.06;5097764;28;20085;-72
2023/10/09 03:51:23;;;;;;;17.63;13.48;;;;;;;16.20;77.49;101844.72;5115294;28;20102;-72
2023/10/09 03:53:50;;;;;;;18.65;13.93;;;;;;;16.20;77.62;101841.91;5103057;28;20028;-72
2023/10/09 03:56:21;;;;;;;22.70;14.88;;;;;;;16.18;77.43;101838.53;5103732;28;20031;-72
2023/10/09 03:58:49;;;;;;;23.05;14.98;;;;;;;16.15;77.58;101831.53;5106199;28;20031;-72
2023/10/09 04:01:28;;;;;;;23.35;14.77;;;;;;;16.19;77.60;101837.41;5105991;28;20028;-72
2023/10/09 04:03:55;;;;;;;23.25;14.70;;;;;;;16.18;77.54;101838.53;5099586;28;20126;-72
2023/10/09 04:06:23;;;;;;;21.23;15.68;;;;;;;16.18;77.63;101841.31;5103952;28;20015;-72
2023/10/09 04:08:51;;;;;;;20.73;15.18;;;;;;;16.15;77.70;101836.25;5100803;28;20036;-72
2023/10/09 04:11:17;;;;;;;22.15;15.52;;;;;;;16.12;77.85;101856.41;5108979;28;20032;-72
2023/10/09 04:13:46;;;;;;;19.35;14.50;;;;;;;16.14;77.75;101842.97;5102544;28;20028;-72
2023/10/09 04:18:52;;;;;;;22.20;15.38;;;;;;;16.11;77.66;101830.38;5094338;28;20043;-72
2023/10/09 04:21:30;;;;;;;19.23;14.38;;;;;;;16.13;77.63;101838.50;5099390;28;20039;-72
2023/10/09 04:26:45;;;;;;;21.98;14.65;;;;;;;16.09;77.80;101821.38;5102972;28;20126;-72
2023/10/09 04:29:26;;;;;;;23.58;14.95;;;;;;;16.10;77.87;101827.81;5107062;28;20028;-72
2023/10/09 04:31:53;;;;;;;19.35;14.50;;;;;;;16.11;77.76;101815.50;5101587;28;20529;-72
2023/10/09 04:34:22;;;;;;;22.45;14.85;;;;;;;16.14;77.77;101823.38;5091583;28;20368;-72
2023/10/09 04:36:57;;;;;;;21.58;14.63;;;;;;;16.12;78.00;101836.81;5106842;28;20027;-72
2023/10/09 04:47:35;;;;;;;22.60;15.15;;;;;;;16.12;77.84;101864.81;5096391;28;20043;-72
2023/10/09 04:50:08;;;;;;;19.77;15.38;;;;;;;16.14;77.98;101859.78;5108384;28;20108;-72
2023/10/09 05:03:12;;;;;;;21.77;14.35;;;;;;;16.16;77.91;101847.22;5094200;28;20048;-71
2023/10/09 05:08:19;;;;;;;21.33;14.25;;;;;;;16.15;78.17;101862.31;5102515;28;20421;-72
2023/10/09 05:16:28;;;;;;;20.73;15.18;;;;;;;16.12;78.37;101871.25;5104033;28;20043;-71
2023/10/09 05:19:29;;;;;;;22.52;15.27;;;;;;;16.12;78.28;101865.66;5095345;28;20043;-71
2023/10/09 05:24:19;;;;;;;23.13;15.60;;;;;;;16.12;78.22;101862.00;5091862;28;20828;-71
2023/10/09 05:31:56;;;;;;;27.67;16.73;;;;;;;16.11;78.39;101861.16;5097182;28;20169;-71
2023/10/09 05:34:33;;;;;;;22.75;15.80;;;;;;;16.13;78.72;101883.31;5092015;28;20024;-71
2023/10/09 05:37:22;;;;;;;22.63;16.43;;;;;;;16.11;78.54;101885.50;5092644;28;20031;-71
2023/10/09 05:40:22;;;;;;;25.05;16.20;;;;;;;16.12;78.57;101890.03;5095345;28;20467;-71
2023/10/09 05:42:57;;;;;;;24.27;16.33;;;;;;;16.13;78.50;101894.50;5105477;28;20078;-72
2023/10/09 05:50:57;;;;;;;22.30;16.90;;;;;;;16.12;78.92;101888.06;5092243;28;20040;-72
2023/10/09 06:04:53;;;;;;;23.92;16.63;;;;;;;16.17;78.82;101918.06;5011635;28;20033;-71
2023/10/09 06:07:24;;;;;;;24.70;16.90;;;;;;;16.13;79.06;101916.91;5097853;28;20399;-71
2023/10/09 06:09:52;;;;;;;24.65;17.58;;;;;;;16.13;79.35;101914.09;5089190;28;20471;-71
2023/10/09 06:12:33;;;;;;;20.95;16.05;;;;;;;16.15;78.98;101920.28;5096139;28;20016;-71
2023/10/09 06:15:18;;;;;;;29.83;18.10;;;;;;;16.14;79.27;101911.03;5098973;28;20039;-71
2023/10/09 06:17:50;;;;;;;23.52;16.88;;;;;;;16.20;79.03;101911.94;5105206;28;20039;-71
2023/10/09 06:23:23;;;;;;;26.42;17.98;;;;;;;16.19;79.08;101910.22;5098647;28;20038;-71
2023/10/09 06:25:51;;;;;;;26.27;17.63;;;;;;;16.20;78.95;101893.19;5092084;28;20036;-71
2023/10/09 06:28:33;;;;;;;27.75;17.77;;;;;;;16.22;79.00;101906.06;5097002;28;20085;-71
2023/10/09 06:31:27;;;;;;;27.35;18.45;;;;;;;16.18;79.25;101901.00;5094763;28;20031;-77
2023/10/09 06:34:07;;;;;;;26.92;18.88;;;;;;;16.20;79.05;101910.00;5090466;28;20126;-75
2023/10/09 06:36:31;;;;;;;25.98;17.75;;;;;;;16.19;79.29;101913.03;5104671;28;20040;-71
2023/10/09 06:39:50;;;;;;;26.23;19.23;;;;;;;16.22;79.27;101903.25;5100180;28;20126;-71
2023/10/09 06:41:45;;;;;;;26.25;19.35;;;;;;;16.22;79.33;101912.50;5088595;28;20471;-70
2023/10/09 06:44:51;;;;;;;28.00;19.42;;;;;;;16.21;79.53;101922.03;5087440;28;20016;-72
2023/10/09 06:46:57;;;;;;;28.83;18.60;;;;;;;16.23;79.24;101919.81;5091661;28;20036;-70
2023/10/09 06:49:29;;;;;;;29.23;19.60;;;;;;;16.21;79.52;101908.03;5094679;28;20028;-71
2023/10/09 06:51:57;;;;;;;29.70;18.60;;;;;;;16.23;79.42;101911.44;5107749;28;20361;-71
2023/10/09 06:54:25;;;;;;;27.83;18.42;;;;;;;16.22;79.41;101909.72;5091641;28;20035;-70
2023/10/09 06:59:21;;;;;;;28.08;19.13;;;;;;;16.22;79.39;101892.06;5092171;28;20112;-71
2023/10/09 07:06:59;;;;;;;24.90;18.17;;;;;;;16.26;79.35;101877.25;5103124;28;20036;-69
2023/10/09 07:09:27;;;;;;;28.00;19.13;;;;;;;16.25;79.33;101877.53;5095996;28;20028;-68
2023/10/09 07:17:15;;;;;;;26.08;17.73;;;;;;;16.29;79.27;101854.31;5104750;28;20536;-72
2023/10/09 07:22:39;;;;;;;28.85;19.80;;;;;;;16.30;79.23;101856.00;5096383;28;20429;-72
2023/10/09 07:25:14;;;;;;;26.23;18.25;;;;;;;16.30;79.27;101852.34;5104673;28;20044;-76
2023/10/09 07:27:48;;;;;;;30.50;19.33;;;;;;;16.30;79.19;101860.75;5101240;28;20028;-64
2023/10/09 07:38:25;;;;;;;24.63;19.15;;;;;;;16.32;79.30;101928.59;5106003;28;20097;-60
2023/10/09 07:41:33;;;;;;;26.95;18.55;;;;;;;16.32;79.35;101942.59;5100179;28;20042;-64
2023/10/09 07:49:12;;;;;;;27.38;19.13;;;;;;;16.31;79.48;101947.38;5098166;28;20062;-73
2023/10/09 07:51:43;;;;;;;26.08;17.83;;;;;;;16.35;79.55;101942.91;5095642;28;20076;-76
2023/10/09 07:54:09;;;;;;;18.27;12.70;;;;;;;16.55;80.71;101921.78;5088950;28;20089;-65
2023/10/09 07:56:43;;;;;;;24.48;18.65;;;;;;;16.42;79.54;101909.91;5091291;28;20024;-72
2023/10/09 07:59:11;;;;;;;26.10;18.92;;;;;;;16.40;79.33;101906.53;5097235;28;20039;-71
2023/10/09 08:01:52;;;;;;;28.17;18.95;;;;;;;16.43;78.97;101905.16;5095345;28;20028;-70
2023/10/09 08:04:20;;;;;;;23.83;18.50;;;;;;;16.40;79.22;101906.53;5092074;28;20034;-70
2023/10/09 08:06:47;;;;;;;25.02;18.05;;;;;;;16.41;79.35;101904.56;5090538;28;20028;-71
2023/10/09 08:17:15;;;;;;;25.17;18.48;;;;;;;16.42;79.46;101920.25;5092535;28;20036;-71
2023/10/09 08:19:58;;;;;;;28.02;18.40;;;;;;;16.44;79.39;101924.50;5093659;28;20034;-67
2023/10/09 08:24:58;;;;;;;25.15;19.17;;;;;;;16.49;79.20;101926.50;5100441;28;20123;-67
2023/10/09 08:35:46;;;;;;;28.05;19.75;;;;;;;16.57;79.50;101905.53;5062455;28;20127;-72
2023/10/09 08:38:11;;;;;;;27.05;19.45;;;;;;;16.58;79.40;101893.22;5101997;28;20031;-71
2023/10/09 08:40:41;;;;;;;28.63;20.52;;;;;;;16.60;79.35;101902.22;5097206;28;20020;-71
2023/10/09 08:43:19;;;;;;;29.35;19.60;;;;;;;16.64;79.31;101903.38;5097844;28;20035;-72
2023/10/09 08:45:52;;;;;;;28.10;19.23;;;;;;;16.64;79.45;101898.59;5098064;28;20068;-73
2023/10/09 08:48:19;;;;;;;30.00;20.45;;;;;;;16.65;79.42;101896.63;5113669;28;20028;-73
2023/10/09 08:50:45;;;;;;;32.25;21.40;;;;;;;16.64;79.45;101901.41;5113319;28;20410;-71
2023/10/09 08:53:12;;;;;;;34.30;21.38;;;;;;;16.68;79.41;101896.09;5113166;28;20023;-71
2023/10/09 08:55:39;;;;;;;34.17;20.75;;;;;;;16.73;79.38;101884.94;5099305;28;20081;-72
2023/10/09 08:58:36;;;;;;;29.92;21.15;;;;;;;16.79;79.09;101892.28;5091730;28;20075;-70
2023/10/09 09:01:02;;;;;;;29.08;20.63;;;;;;;16.84;79.09;101895.13;5093380;28;20024;-72
2023/10/09 09:03:38;;;;;;;30.17;19.98;;;;;;;16.89;78.74;101900.75;5104492;28;20039;-71
2023/10/09 09:06:05;;;;;;;27.88;20.60;;;;;;;16.92;78.72;101903.03;5097066;28;20020;-72
2023/10/09 09:08:31;;;;;;;28.85;21.02;;;;;;;16.96;78.49;101894.94;5105273;28;20027;-72
2023/10/09 09:11:48;;;;;;;31.48;20.17;;;;;;;17.01;78.38;101896.91;5098208;28;20039;-73
2023/10/09 09:14:04;;;;;;;28.90;20.63;;;;;;;17.06;78.27;101908.19;5083019;28;20054;-70
2023/10/09 09:16:31;;;;;;;30.13;21.55;;;;;;;17.07;78.22;101913.50;5109093;28;20023;-70
2023/10/09 09:21:43;;;;;;;30.80;20.27;;;;;;;17.16;78.14;101925.91;5110297;28;20115;-72
2023/10/09 09:27:09;;;;;;;28.58;20.33;;;;;;;17.25;77.81;101934.69;5093290;28;20561;-72
2023/10/09 09:29:37;;;;;;;30.73;22.08;;;;;;;17.29;77.86;101937.75;5092652;28;20043;-70
2023/10/09 09:32:16;;;;;;;28.63;20.75;;;;;;;17.29;78.30;101941.44;5097960;28;20169;-71
2023/10/09 09:34:54;;;;;;;31.83;22.10;;;;;;;17.31;78.07;101947.59;5110771;28;20039;-71
2023/10/09 09:37:24;;;;;;;28.98;21.48;;;;;;;17.33;78.10;101948.19;5112191;28;20024;-71
2023/10/09 09:39:51;;;;;;;30.55;21.80;;;;;;;17.34;78.07;101949.88;5098903;28;20059;-73
2023/10/09 09:42:18;;;;;;;30.48;21.95;;;;;;;17.36;78.06;101944.81;5094916;28;20504;-64
2023/10/09 09:44:44;;;;;;;30.13;21.02;;;;;;;17.39;77.87;101954.66;5091265;28;20621;-64
2023/10/09 09:47:13;;;;;;;33.90;21.73;;;;;;;17.40;77.81;101965.59;5097708;28;20023;-67
2023/10/09 09:49:43;;;;;;;31.70;23.30;;;;;;;17.42;78.70;101962.53;5098043;28;20032;-65
2023/10/09 09:52:12;;;;;;;32.10;23.25;;;;;;;17.42;78.15;101966.19;5095187;28;20483;-70
2023/10/09 09:54:38;;;;;;;32.03;23.52;;;;;;;17.44;77.75;101971.53;5091641;28;20027;-68
2023/10/09 09:57:08;;;;;;;33.20;25.17;;;;;;;17.45;77.81;101970.44;5095410;28;20048;-65
2023/10/09 09:59:40;;;;;;;36.08;24.70;;;;;;;17.46;77.58;101965.66;5094945;28;20024;-69
2023/10/09 10:02:10;;;;;;;35.10;23.30;;;;;;;17.48;77.68;101966.22;5094611;28;20051;-66
2023/10/09 10:04:39;;;;;;;33.35;24.00;;;;;;;17.51;77.58;101960.06;5097851;28;20015;-66
2023/10/09 10:07:12;;;;;;;37.72;25.08;;;;;;;17.53;77.92;101969.06;5107054;28;20015;-63
2023/10/09 10:09:44;;;;;;;34.72;24.13;;;;;;;17.57;77.75;101970.22;5091738;28;20032;-64
2023/10/09 10:12:10;;;;;;;32.47;24.98;;;;;;;17.60;77.90;101972.44;5092604;28;20483;-63
2023/10/09 10:15:08;;;;;;;36.50;26.20;;;;;;;17.63;77.77;101969.94;5091808;28;20035;-66
2023/10/09 10:17:53;;;;;;;33.40;24.98;;;;;;;17.68;78.04;101983.16;5096803;28;20165;-68
2023/10/09 10:20:31;;;;;;;38.92;25.92;;;;;;;17.67;78.18;101975.84;5093013;28;20042;-69
2023/10/09 10:23:17;;;;;;;35.97;24.98;;;;;;;17.69;77.88;101968.00;5090526;28;20035;-66
2023/10/09 10:25:48;;;;;;;36.00;26.95;;;;;;;17.70;77.49;101969.69;5095853;28;20055;-67
2023/10/09 10:28:28;;;;;;;35.15;26.02;;;;;;;17.71;77.94;101973.34;5094894;28;20039;-65
2023/10/09 10:30:54;;;;;;;34.60;26.50;;;;;;;17.72;77.94;101969.41;5095328;28;20242;-68
2023/10/09 10:33:22;;;;;;;35.92;26.63;;;;;;;17.74;77.60;101970.84;5098088;28;20019;-69
2023/10/09 10:35:52;;;;;;;36.55;27.13;;;;;;;17.77;77.95;101975.94;5103775;28;20032;-68
2023/10/09 10:38:38;;;;;;;38.05;28.48;;;;;;;17.82;78.12;101972.31;5090738;28;20036;-68
2023/10/09 10:41:23;;;;;;;38.15;28.27;;;;;;;17.86;78.24;101974.28;5096158;28;20043;-70
2023/10/09 10:46:30;;;;;;;38.50;29.30;;;;;;;17.92;78.11;101963.94;5106067;28;20041;-68
2023/10/09 10:48:59;;;;;;;39.28;29.00;;;;;;;17.96;78.13;101956.63;5094927;28;20031;-69
2023/10/09 10:51:37;;;;;;;37.92;27.92;;;;;;;17.98;78.06;101957.19;5094645;28;20024;-69
2023/10/09 10:56:48;;;;;;;38.40;29.67;;;;;;;18.04;77.89;101963.69;5103690;28;20047;-71
2023/10/09 10:59:14;;;;;;;35.72;27.90;;;;;;;18.06;77.62;101961.44;5100809;28;20487;-72
2023/10/09 11:07:00;;;;;;;39.72;29.02;;;;;;;18.13;78.14;101968.47;5090361;28;20042;-71
2023/10/09 11:09:35;;;;;;;36.67;28.05;;;;;;;18.15;77.85;101971.00;5092496;28;20039;-70
2023/10/09 11:12:21;;;;;;;36.88;27.27;;;;;;;18.17;78.11;101974.41;5099820;28;20028;-71
2023/10/09 11:15:05;;;;;;;36.97;27.88;;;;;;;18.20;78.13;101979.47;5099231;28;20031;-72
2023/10/09 11:17:32;;;;;;;35.83;27.02;;;;;;;18.25;78.11;101975.81;5105695;28;20436;-69
2023/10/09 11:19:57;;;;;;;38.30;26.92;;;;;;;18.30;78.07;101973.00;5098635;28;20028;-71
2023/10/09 11:22:29;;;;;;;36.60;27.70;;;;;;;18.33;77.94;101967.69;5090187;28;20817;-70
2023/10/09 11:25:12;;;;;;;37.15;26.30;;;;;;;18.43;77.73;101977.25;5089303;28;20040;-67
2023/10/09 11:27:42;;;;;;;32.88;23.58;;;;;;;18.49;77.72;101970.50;5094067;28;20063;-66
2023/10/09 11:30:32;;;;;;;37.40;25.45;;;;;;;18.58;78.27;101966.00;5090992;28;20024;-67
2023/10/09 11:33:13;;;;;;;37.05;25.83;;;;;;;18.65;77.74;101963.78;5092526;28;20046;-67
2023/10/09 11:35:41;;;;;;;33.38;24.42;;;;;;;18.67;77.09;101961.53;5092621;28;20028;-66
2023/10/09 11:38:20;;;;;;;35.30;23.17;;;;;;;18.66;76.56;101959.84;5097582;28;20059;-66
2023/10/09 11:43:23;;;;;;;28.60;21.13;;;;;;;18.74;76.47;101961.28;5095568;28;20504;-66
2023/10/09 11:45:54;;;;;;;32.72;20.60;;;;;;;18.77;76.29;101961.56;5098272;28;20284;-67
2023/10/09 11:48:24;;;;;;;27.63;18.83;;;;;;;18.82;75.97;101958.75;5107850;28;20368;-66
2023/10/09 11:50:56;;;;;;;27.58;19.10;;;;;;;18.81;76.05;101951.44;5094950;28;20036;-67
2023/10/09 11:55:52;;;;;;;25.92;18.17;;;;;;;18.87;76.33;101971.97;5094253;28;20382;-67
2023/10/09 11:58:24;;;;;;;31.55;18.27;;;;;;;18.92;75.77;101959.88;5093640;28;20062;-67
2023/10/09 12:00:51;;;;;;;22.90;16.48;;;;;;;18.93;75.75;101958.75;5093330;28;20031;-67
2023/10/09 12:03:23;;;;;;;23.33;16.35;;;;;;;18.96;75.90;101969.44;5093373;28;20857;-67
2023/10/09 12:05:48;;;;;;;;;;;;;;;18.98;76.21;101965.22;5095020;28;20031;-67
2023/10/09 12:08:16;;;;;;;22.80;16.45;;;;;;;18.98;75.77;101959.59;5095911;28;20379;-67
2023/10/09 12:10:42;;;;;;;24.33;15.73;;;;;;;19.00;76.12;101959.31;5099485;28;20023;-67
2023/10/09 12:13:07;;;;;;;25.55;15.68;;;;;;;18.99;75.57;101963.25;5105399;28;20046;-67
2023/10/09 12:15:39;;;;;;;23.02;15.05;;;;;;;19.01;75.57;101959.00;5105900;28;20030;-67
2023/10/09 12:18:26;;;;;;;19.88;14.88;;;;;;;19.03;75.83;101958.75;5093569;28;20024;-66
2023/10/09 12:20:52;;;;;;;19.23;9.40;;;;;;;19.09;75.52;101958.44;5104916;28;20080;-67
2023/10/09 12:23:22;;;;;;;18.98;10.73;;;;;;;19.11;75.51;101956.19;5099557;28;20024;-66
2023/10/09 12:25:56;;;;;;;13.63;8.65;;;;;;;19.19;75.06;101951.97;5100888;28;20253;-63
2023/10/09 12:28:22;;;;;;;14.02;8.60;;;;;;;19.18;74.57;101950.28;5093777;28;20131;-64
2023/10/09 12:30:51;;;;;;;16.65;11.35;;;;;;;19.17;74.42;101944.91;5109674;28;20031;-66
2023/10/09 12:33:19;;;;;;;15.60;8.75;;;;;;;19.22;74.91;101940.13;5098392;28;20032;-66
2023/10/09 12:35:48;;;;;;;16.70;11.10;;;;;;;19.16;74.40;101941.25;5094017;28;20540;-66
2023/10/09 12:38:18;;;;;;;17.67;11.02;;;;;;;19.21;74.70;101952.50;5095677;28;20034;-66
2023/10/09 12:40:50;;;;;;;13.45;8.77;;;;;;;19.26;74.72;101941.25;5109464;28;20110;-67
2023/10/09 12:43:19;;;;;;;21.25;11.75;;;;;;;19.25;74.76;101933.91;5093173;28;20039;-67
2023/10/09 12:45:48;;;;;;;16.15;9.43;;;;;;;19.25;74.58;101925.47;5093635;28;20431;-67
2023/10/09 12:48:14;;;;;;;12.15;8.75;;;;;;;19.28;74.55;101927.72;5093600;28;20094;-67
2023/10/09 12:50:44;;;;;;;16.75;9.60;;;;;;;19.29;74.41;101926.56;5112583;28;20092;-67
2023/10/09 12:53:10;;;;;;;15.57;11.13;;;;;;;19.29;74.25;101923.75;5106874;28;20028;-68
2023/10/09 12:55:40;;;;;;;19.10;11.40;;;;;;;19.31;74.17;101913.06;5100862;28;20157;-65
2023/10/09 12:58:07;;;;;;;19.95;10.20;;;;;;;19.28;73.34;101908.00;5094394;28;20509;-66
2023/10/09 13:00:44;;;;;;;15.57;10.30;;;;;;;19.29;73.49;101900.41;5097503;28;20153;-65
2023/10/09 13:03:21;;;;;;;17.63;9.73;;;;;;;19.29;73.18;101900.41;5099334;28;20166;-65
2023/10/09 13:05:52;;;;;;;18.15;9.75;;;;;;;19.29;73.44;101895.63;5108014;28;20104;-65
2023/10/09 13:08:31;;;;;;;21.23;10.23;;;;;;;19.31;74.04;101899.00;5100619;28;20028;-65
2023/10/09 13:11:04;;;;;;;18.15;10.60;;;;;;;19.32;73.82;101902.66;5099898;28;20028;-66
2023/10/09 13:13:50;;;;;;;16.08;10.07;;;;;;;19.33;74.19;101905.16;5100769;28;20425;-66
2023/10/09 13:16:23;;;;;;;13.48;8.00;;;;;;;19.33;73.55;101905.16;5092649;28;20024;-64
2023/10/09 13:18:59;;;;;;;17.10;10.15;;;;;;;19.35;73.94;101899.28;5097804;28;20040;-65
2023/10/09 13:21:26;;;;;;;15.63;9.82;;;;;;;19.35;74.28;101900.13;5093919;28;20473;-64
2023/10/09 13:23:54;;;;;;;18.88;10.80;;;;;;;19.37;74.70;101897.88;5091444;28;20044;-66
2023/10/09 13:26:25;;;;;;;19.20;11.05;;;;;;;19.40;74.45;101902.06;5091686;28;20136;-65
2023/10/09 13:28:57;;;;;;;19.33;10.32;;;;;;;19.38;74.72;101905.19;5099468;28;20030;-65
2023/10/09 13:31:25;;;;;;;17.50;10.00;;;;;;;19.42;74.27;101915.88;5094984;28;20086;-67
2023/10/09 13:33:55;;;;;;;17.58;10.95;;;;;;;19.42;73.74;101918.69;5107974;28;20454;-66
2023/10/09 13:36:27;;;;;;;16.63;10.52;;;;;;;19.46;74.04;101906.56;5098755;28;20128;-66
2023/10/09 13:38:57;;;;;;;16.50;10.38;;;;;;;19.47;74.33;101902.59;5103872;28;20035;-66
2023/10/09 13:41:29;;;;;;;14.95;9.55;;;;;;;19.55;74.17;101903.97;5093407;28;20040;-65
2023/10/09 13:43:56;;;;;;;22.02;11.02;;;;;;;19.55;73.97;101903.97;5095107;28;20028;-65
2023/10/09 13:46:23;;;;;;;15.60;11.27;;;;;;;19.54;73.28;101910.75;5102051;28;20109;-66
2023/10/09 13:48:49;;;;;;;16.90;10.10;;;;;;;19.55;73.60;101909.63;5094179;28;20126;-65
2023/10/09 13:51:18;;;;;;;17.92;10.20;;;;;;;19.52;73.35;101911.03;5100380;28;20526;-65
2023/10/09 13:53:45;;;;;;;16.52;10.55;;;;;;;19.54;73.41;101919.19;5102624;28;20506;-65
2023/10/09 13:56:18;;;;;;;15.93;10.38;;;;;;;19.57;73.51;101908.19;5089662;28;20474;-66
2023/10/09 13:58:49;;;;;;;17.17;9.73;;;;;;;19.58;73.48;101914.69;5092700;28;20494;-66
2023/10/09 14:01:27;;;;;;;18.98;10.32;;;;;;;19.59;73.03;101916.34;5094248;28;20109;-66
2023/10/09 14:04:07;;;;;;;21.23;11.02;;;;;;;19.63;73.11;101914.69;5095676;28;20478;-66